Alice, Texas
Current Conditions -  °F | °C
As of 10:53 PM on Sunday 19 Oct 2014 (Local Time) from KALI Reporting Station
Clear Clear  
Wind Chill: 72°   Ceiling: Unl
Heat Index: 72°   Visibility: 10mi
Dew Point: 67°   Wind: 5mph
Humidity: 84%   Direction: 40°NE
Pressure: 30"   Gusts: NA
Location:  27.75°N, 98.06°W
Report Text: KALI 200353Z AUTO 04004KT 10SM CLR 22/19 A3000 RMK AO2 SLP155 T02220194 $
Loading
Personal Weather Stations






























Interactive Weather Map
Tropical Storm Tracking
New forecast layout! Learn more

10-Day Weather Forecast

Advertisements
Track Severe Weather on mobile